Time;durP1;ratioP1;P1;durP2;ratioP2;P2;SDS_P1;SDS_P2;PMS_P1;PMS_P2;Temp;Humidity;BMP_temperature;BMP_pressure;BME280_temperature;BME280_humidity;BME280_pressure;Samples;Min_cycle;Max_cycle;Signal;HPM_P1;HPM_P2
2022/03/22 00:00:12;;;;;;;4.65;2.95;;;;;;;;;;7391046;19;20010;-76
2022/03/22 00:02:37;;;;;;;5.30;2.50;;;;;;;;;;7390871;19;19995;-77
2022/03/22 00:05:03;;;;;;;5.55;3.22;;;;;;;;;;7389537;19;20003;-76
2022/03/22 00:07:30;;;;;;;4.78;2.75;;;;;;;;;;7390333;19;20010;-76
2022/03/22 00:09:55;;;;;;;5.28;3.15;;;;;;;;;;7385340;19;20006;-76
2022/03/22 00:12:21;;;;;;;4.45;2.47;;;;;;;;;;7387772;19;20122;-76
2022/03/22 00:14:46;;;;;;;4.22;2.47;;;;;;;;;;7388060;19;20032;-76
2022/03/22 00:17:12;;;;;;;6.13;2.83;;;;;;;;;;7385880;19;19995;-76
2022/03/22 00:19:37;;;;;;;4.80;3.13;;;;;;;;;;7385933;19;20006;-76
2022/03/22 00:22:02;;;;;;;4.38;2.45;;;;;;;;;;7389531;19;20006;-76
2022/03/22 00:24:29;;;;;;;5.75;2.97;;;;;;;;;;7388216;19;20010;-76
2022/03/22 00:26:54;;;;;;;6.28;2.85;;;;;;;;;;7390795;19;20242;-75
2022/03/22 00:29:19;;;;;;;3.90;2.70;;;;;;;;;;7386445;19;20006;-76
2022/03/22 00:31:45;;;;;;;3.85;2.40;;;;;;;;;;7386468;19;20494;-76
2022/03/22 00:34:13;;;;;;;4.85;2.40;;;;;;;;;;7388239;19;20002;-76
2022/03/22 00:36:39;;;;;;;4.57;2.15;;;;;;;;;;7390156;19;20426;-76
2022/03/22 00:39:04;;;;;;;5.93;2.63;;;;;;;;;;7388332;19;20082;-76
2022/03/22 00:41:29;;;;;;;3.58;2.22;;;;;;;;;;7389479;19;20353;-76
2022/03/22 00:43:55;;;;;;;4.65;2.92;;;;;;;;;;7387884;19;20006;-76
2022/03/22 00:46:20;;;;;;;4.28;2.25;;;;;;;;;;7389200;19;20018;-76
2022/03/22 00:48:47;;;;;;;4.28;2.53;;;;;;;;;;7392144;19;20011;-76
2022/03/22 00:51:13;;;;;;;4.85;2.67;;;;;;;;;;7395986;19;20045;-76
2022/03/22 00:53:39;;;;;;;3.60;2.13;;;;;;;;;;7397128;19;20002;-76
2022/03/22 00:56:04;;;;;;;3.70;2.13;;;;;;;;;;7393810;19;20031;-76
2022/03/22 00:58:30;;;;;;;3.67;2.20;;;;;;;;;;7394446;19;20976;-76
2022/03/22 01:00:56;;;;;;;4.07;2.25;;;;;;;;;;7395259;19;20443;-76
2022/03/22 01:03:21;;;;;;;3.45;1.85;;;;;;;;;;7393289;19;20114;-76
2022/03/22 01:05:47;;;;;;;4.10;2.20;;;;;;;;;;7394315;19;20471;-76
2022/03/22 01:08:14;;;;;;;5.20;2.47;;;;;;;;;;7393898;19;20394;-76
2022/03/22 01:10:41;;;;;;;4.72;2.30;;;;;;;;;;7395761;19;20006;-76
2022/03/22 01:13:08;;;;;;;4.05;2.22;;;;;;;;;;7394970;19;20360;-76
2022/03/22 01:15:35;;;;;;;7.97;2.63;;;;;;;;;;7395627;19;20146;-76
2022/03/22 01:18:11;;;;;;;4.63;2.42;;;;;;;;;;7393202;19;20620;-76
2022/03/22 01:20:40;;;;;;;3.42;1.83;;;;;;;;;;7394994;19;20015;-76
2022/03/22 01:23:07;;;;;;;5.03;1.98;;;;;;;;;;7392603;19;20033;-76
2022/03/22 01:25:34;;;;;;;5.57;2.03;;;;;;;;;;7395262;19;20541;-76
2022/03/22 01:28:02;;;;;;;3.05;1.80;;;;;;;;;;7393636;19;20139;-76
2022/03/22 01:30:28;;;;;;;5.78;1.73;;;;;;;;;;7392734;19;20069;-76
2022/03/22 01:32:55;;;;;;;3.42;1.80;;;;;;;;;;7392922;19;20434;-76
2022/03/22 01:35:21;;;;;;;2.67;1.60;;;;;;;;;;7394129;19;20034;-76
2022/03/22 01:37:47;;;;;;;2.15;1.63;;;;;;;;;;7394029;19;20014;-76
2022/03/22 01:40:14;;;;;;;3.22;1.85;;;;;;;;;;7386610;19;20005;-76
2022/03/22 01:42:39;;;;;;;2.92;1.52;;;;;;;;;;7393464;19;20066;-76
2022/03/22 01:45:07;;;;;;;2.78;1.63;;;;;;;;;;7392201;19;20393;-76
2022/03/22 01:47:34;;;;;;;4.85;1.60;;;;;;;;;;7392204;19;20518;-76
2022/03/22 01:49:59;;;;;;;2.90;1.55;;;;;;;;;;7390300;19;20014;-76
2022/03/22 01:52:27;;;;;;;3.53;1.67;;;;;;;;;;7394605;19;20027;-76
2022/03/22 01:54:55;;;;;;;3.67;1.77;;;;;;;;;;7393550;19;20003;-76
2022/03/22 01:57:23;;;;;;;5.93;1.52;;;;;;;;;;7393453;19;20018;-76
2022/03/22 01:59:49;;;;;;;2.47;1.45;;;;;;;;;;7391133;19;20010;-76
2022/03/22 02:07:45;;;;;;;3.28;1.70;;;;;;;;;;7394059;19;20078;-76
2022/03/22 02:10:11;;;;;;;4.30;1.88;;;;;;;;;;7389565;19;20035;-76
2022/03/22 02:12:36;;;;;;;2.85;1.48;;;;;;;;;;7392238;19;20015;-76
2022/03/22 02:15:03;;;;;;;4.57;1.65;;;;;;;;;;7392113;19;20011;-76
2022/03/22 02:17:28;;;;;;;2.45;1.38;;;;;;;;;;7390551;19;20082;-76
2022/03/22 02:19:54;;;;;;;2.92;1.58;;;;;;;;;;7387922;19;20035;-76
2022/03/22 02:22:24;;;;;;;3.53;1.83;;;;;;;;;;7389092;19;20356;-77
2022/03/22 02:24:49;;;;;;;1.50;1.20;;;;;;;;;;7393324;19;20010;-78
2022/03/22 02:27:15;;;;;;;2.47;1.50;;;;;;;;;;7394307;19;20066;-78
2022/03/22 02:29:40;;;;;;;3.15;1.55;;;;;;;;;;7391508;19;20023;-77
2022/03/22 02:32:09;;;;;;;2.83;1.52;;;;;;;;;;7392493;19;20006;-77
2022/03/22 02:34:37;;;;;;;3.28;1.63;;;;;;;;;;7395640;19;20023;-76
2022/03/22 02:37:04;;;;;;;2.92;1.50;;;;;;;;;;7394873;19;20489;-76
2022/03/22 02:39:30;;;;;;;1.88;1.17;;;;;;;;;;7390103;19;20007;-78
2022/03/22 02:41:56;;;;;;;5.13;1.67;;;;;;;;;;7394227;19;20003;-77
2022/03/22 02:44:21;;;;;;;2.88;1.52;;;;;;;;;;7391098;19;20031;-77
2022/03/22 02:46:47;;;;;;;2.22;1.30;;;;;;;;;;7394796;19;20018;-77
2022/03/22 02:49:15;;;;;;;3.30;1.48;;;;;;;;;;7388663;19;20402;-78
2022/03/22 02:51:41;;;;;;;2.75;1.33;;;;;;;;;;7395224;19;20800;-76
2022/03/22 02:54:06;;;;;;;2.33;1.25;;;;;;;;;;7391797;19;20006;-78
2022/03/22 02:56:32;;;;;;;1.58;1.17;;;;;;;;;;7394938;19;20024;-77
2022/03/22 02:58:58;;;;;;;1.92;1.33;;;;;;;;;;7388743;19;20021;-75
2022/03/22 03:01:23;;;;;;;2.28;1.55;;;;;;;;;;7394223;19;20374;-75
2022/03/22 03:03:49;;;;;;;3.78;1.60;;;;;;;;;;7392662;19;20003;-77
2022/03/22 03:06:15;;;;;;;3.03;1.13;;;;;;;;;;7407009;19;19991;-75
2022/03/22 03:08:41;;;;;;;3.30;1.23;;;;;;;;;;7416579;19;20003;-73
2022/03/22 03:11:07;;;;;;;3.10;1.33;;;;;;;;;;7415689;19;20005;-73
2022/03/22 03:14:38;;;;;;;3.92;1.27;;;;;;;;;;7421536;19;19995;-74
2022/03/22 03:16:18;;;;;;;2.70;1.45;;;;;;;;;;7407955;19;20037;-78
2022/03/22 03:18:44;;;;;;;2.67;1.48;;;;;;;;;;7394735;19;20315;-77
2022/03/22 03:21:09;;;;;;;2.70;1.40;;;;;;;;;;7392648;19;20489;-77
2022/03/22 03:23:34;;;;;;;4.47;1.73;;;;;;;;;;7391791;19;19999;-77
2022/03/22 03:26:00;;;;;;;3.33;1.60;;;;;;;;;;7397514;19;20010;-77
2022/03/22 03:28:25;;;;;;;2.17;1.30;;;;;;;;;;7253753;19;2709088;-78
2022/03/22 03:30:50;;;;;;;2.60;1.45;;;;;;;;;;7395030;19;20009;-77
2022/03/22 03:33:16;;;;;;;2.45;1.25;;;;;;;;;;7394683;19;20466;-78
2022/03/22 03:35:41;;;;;;;2.13;1.23;;;;;;;;;;7394557;19;19994;-78
2022/03/22 03:38:06;;;;;;;3.50;1.52;;;;;;;;;;7395498;19;20138;-74
2022/03/22 03:43:15;;;;;;;3.58;1.63;;;;;;;;;;7396144;19;20002;-78
2022/03/22 03:48:24;;;;;;;2.10;1.48;;;;;;;;;;7393975;19;20104;-79
2022/03/22 03:50:49;;;;;;;4.15;1.58;;;;;;;;;;7388024;19;20138;-76
2022/03/22 03:53:15;;;;;;;2.13;1.17;;;;;;;;;;7387409;19;20041;-76
2022/03/22 03:55:41;;;;;;;2.75;1.40;;;;;;;;;;7390926;19;20010;-76
2022/03/22 03:58:06;;;;;;;3.13;1.45;;;;;;;;;;7388346;19;20326;-77
2022/03/22 04:00:32;;;;;;;2.75;1.40;;;;;;;;;;7390173;19;20029;-76
2022/03/22 04:02:57;;;;;;;3.03;1.48;;;;;;;;;;7387757;19;19998;-77
2022/03/22 04:05:22;;;;;;;2.95;1.40;;;;;;;;;;7389365;19;20221;-76
2022/03/22 04:07:47;;;;;;;4.28;1.38;;;;;;;;;;7389452;19;20033;-76
2022/03/22 04:10:13;;;;;;;2.65;1.25;;;;;;;;;;7386014;19;20010;-75
2022/03/22 04:12:43;;;;;;;2.65;1.48;;;;;;;;;;7388088;19;19998;-76
2022/03/22 04:15:08;;;;;;;4.13;1.60;;;;;;;;;;7389609;19;20002;-75
2022/03/22 04:17:34;;;;;;;3.30;1.63;;;;;;;;;;7389330;19;20313;-76
2022/03/22 04:19:59;;;;;;;2.83;1.30;;;;;;;;;;7383882;19;20039;-76
2022/03/22 04:22:25;;;;;;;3.25;1.38;;;;;;;;;;7389526;19;20017;-76
2022/03/22 04:24:50;;;;;;;2.50;1.30;;;;;;;;;;7394326;19;20001;-76
2022/03/22 04:32:43;;;;;;;2.90;1.10;;;;;;;;;;7396515;19;20041;-75
2022/03/22 04:35:19;;;;;;;2.72;1.30;;;;;;;;;;7396196;19;19998;-76
2022/03/22 04:37:47;;;;;;;4.00;1.65;;;;;;;;;;7396511;19;20011;-77
2022/03/22 04:40:14;;;;;;;4.18;1.50;;;;;;;;;;7392326;19;20119;-77
2022/03/22 04:42:40;;;;;;;3.65;1.25;;;;;;;;;;7397467;19;20021;-76
2022/03/22 04:45:06;;;;;;;2.30;1.30;;;;;;;;;;7394055;19;20010;-76
2022/03/22 04:47:32;;;;;;;2.97;1.30;;;;;;;;;;7392559;19;20017;-76
2022/03/22 04:49:58;;;;;;;2.25;1.30;;;;;;;;;;7393397;19;20374;-77
2022/03/22 04:57:52;;;;;;;2.08;1.30;;;;;;;;;;7396080;19;20449;-77
2022/03/22 05:00:18;;;;;;;2.35;1.40;;;;;;;;;;7393472;19;20023;-77
2022/03/22 05:02:43;;;;;;;3.33;1.40;;;;;;;;;;7396421;19;20002;-77
2022/03/22 05:05:09;;;;;;;2.25;1.27;;;;;;;;;;7392972;19;20014;-77
2022/03/22 05:07:34;;;;;;;3.75;1.98;;;;;;;;;;7396416;19;20331;-76
2022/03/22 05:09:59;;;;;;;4.05;1.73;;;;;;;;;;7393930;19;20010;-78
2022/03/22 05:12:24;;;;;;;3.40;1.52;;;;;;;;;;7396563;19;20014;-77
2022/03/22 05:14:50;;;;;;;2.88;1.35;;;;;;;;;;7395653;19;20002;-77
2022/03/22 05:17:21;;;;;;;4.55;1.67;;;;;;;;;;7394243;19;20015;-77
2022/03/22 05:19:49;;;;;;;3.63;1.42;;;;;;;;;;7393078;19;20497;-77
2022/03/22 05:22:15;;;;;;;3.60;1.60;;;;;;;;;;7396728;19;20014;-77
2022/03/22 05:24:40;;;;;;;3.60;1.60;;;;;;;;;;7392017;19;20031;-77
2022/03/22 05:27:06;;;;;;;4.65;1.50;;;;;;;;;;7397031;19;20014;-77
2022/03/22 05:29:32;;;;;;;2.95;1.48;;;;;;;;;;7393150;19;20010;-78
2022/03/22 05:31:57;;;;;;;3.83;1.77;;;;;;;;;;7391700;19;20362;-75
2022/03/22 05:34:22;;;;;;;5.53;1.65;;;;;;;;;;7391738;19;20014;-77
2022/03/22 05:36:48;;;;;;;2.85;1.70;;;;;;;;;;7393094;19;20002;-78
2022/03/22 05:39:13;;;;;;;3.75;1.55;;;;;;;;;;7393236;19;20002;-77
2022/03/22 05:41:38;;;;;;;3.95;1.67;;;;;;;;;;7394448;19;20002;-77
2022/03/22 05:44:04;;;;;;;6.47;2.35;;;;;;;;;;7393984;19;20024;-77
2022/03/22 05:46:29;;;;;;;4.57;2.33;;;;;;;;;;7394267;19;20304;-75
2022/03/22 05:48:55;;;;;;;4.78;2.00;;;;;;;;;;7390207;19;20018;-75
2022/03/22 05:51:20;;;;;;;2.72;1.40;;;;;;;;;;7393248;19;20100;-76
2022/03/22 05:53:46;;;;;;;4.63;1.92;;;;;;;;;;7394927;19;20339;-78
2022/03/22 05:56:12;;;;;;;5.88;2.15;;;;;;;;;;7393703;19;20010;-78
2022/03/22 05:58:37;;;;;;;4.32;1.63;;;;;;;;;;7392651;19;20007;-76
2022/03/22 06:01:03;;;;;;;3.40;1.63;;;;;;;;;;7393616;19;20014;-80
2022/03/22 06:03:28;;;;;;;4.45;1.90;;;;;;;;;;7392241;19;20438;-76
2022/03/22 06:05:54;;;;;;;4.13;1.80;;;;;;;;;;7395500;19;20014;-78
2022/03/22 06:08:20;;;;;;;3.13;1.50;;;;;;;;;;7391751;19;19999;-78
2022/03/22 06:10:45;;;;;;;3.30;1.60;;;;;;;;;;7393759;19;20438;-76
2022/03/22 06:13:11;;;;;;;3.97;1.80;;;;;;;;;;7395224;19;20457;-79
2022/03/22 06:15:37;;;;;;;5.72;1.33;;;;;;;;;;7396252;19;20017;-76
2022/03/22 06:18:05;;;;;;;5.97;1.65;;;;;;;;;;7395811;19;20002;-77
2022/03/22 06:20:31;;;;;;;2.88;1.40;;;;;;;;;;7395602;19;20520;-76
2022/03/22 06:22:58;;;;;;;6.05;1.90;;;;;;;;;;7395817;19;20022;-77
2022/03/22 06:25:24;;;;;;;2.50;1.40;;;;;;;;;;7395233;19;20005;-76
2022/03/22 06:27:51;;;;;;;3.75;1.45;;;;;;;;;;7391679;19;20011;-77
2022/03/22 06:30:17;;;;;;;3.28;1.65;;;;;;;;;;7390452;19;20151;-76
2022/03/22 06:32:47;;;;;;;3.75;1.63;;;;;;;;;;7389776;19;20014;-76
2022/03/22 06:35:13;;;;;;;3.08;1.40;;;;;;;;;;7391520;19;19995;-75
2022/03/22 06:37:40;;;;;;;3.55;1.50;;;;;;;;;;7391960;19;20021;-76
2022/03/22 06:40:07;;;;;;;3.13;1.30;;;;;;;;;;7390827;19;20004;-76
2022/03/22 06:42:32;;;;;;;2.55;1.40;;;;;;;;;;7393238;19;20018;-76
2022/03/22 06:44:58;;;;;;;2.90;1.40;;;;;;;;;;7389707;19;20075;-77
2022/03/22 06:47:23;;;;;;;3.25;1.42;;;;;;;;;;7395263;19;20043;-77
2022/03/22 06:49:48;;;;;;;2.38;1.30;;;;;;;;;;7389655;19;20381;-76
2022/03/22 06:52:14;;;;;;;2.00;1.20;;;;;;;;;;7392951;19;20020;-76
2022/03/22 06:54:39;;;;;;;2.28;1.35;;;;;;;;;;7394928;19;20333;-78
2022/03/22 06:57:06;;;;;;;2.33;1.30;;;;;;;;;;7395798;19;20835;-78
2022/03/22 06:59:31;;;;;;;2.38;1.33;;;;;;;;;;7392417;19;20466;-77
2022/03/22 07:01:57;;;;;;;3.10;1.23;;;;;;;;;;7411058;19;20032;-76
2022/03/22 07:04:22;;;;;;;2.95;1.25;;;;;;;;;;7420160;19;19998;-76
2022/03/22 07:06:47;;;;;;;2.05;1.17;;;;;;;;;;7421967;19;20007;-76
2022/03/22 07:09:12;;;;;;;1.27;1.17;;;;;;;;;;7416388;19;20574;-76
2022/03/22 07:11:51;;;;;;;3.58;1.55;;;;;;;;;;7415162;19;20017;-76
2022/03/22 07:14:21;;;;;;;1.83;1.27;;;;;;;;;;7393880;19;20009;-77
2022/03/22 07:16:47;;;;;;;2.45;1.58;;;;;;;;;;7391018;19;20044;-77
2022/03/22 07:19:16;;;;;;;2.72;1.98;;;;;;;;;;7390157;19;20472;-76
2022/03/22 07:21:43;;;;;;;4.72;1.67;;;;;;;;;;7392720;19;19999;-76
2022/03/22 07:24:10;;;;;;;2.78;1.33;;;;;;;;;;7392562;19;20010;-77
2022/03/22 07:26:35;;;;;;;2.88;1.67;;;;;;;;;;7394309;19;20031;-77
2022/03/22 07:29:01;;;;;;;2.13;1.40;;;;;;;;;;7390328;19;20011;-76
2022/03/22 07:31:26;;;;;;;4.30;2.03;;;;;;;;;;7393018;19;20010;-76
2022/03/22 07:33:51;;;;;;;3.10;1.55;;;;;;;;;;7393654;19;19990;-77
2022/03/22 07:36:17;;;;;;;3.35;1.98;;;;;;;;;;7393292;19;19994;-78
2022/03/22 07:38:42;;;;;;;3.10;1.95;;;;;;;;;;7390033;19;20078;-77
2022/03/22 07:41:08;;;;;;;2.80;1.65;;;;;;;;;;7392148;19;20027;-76
2022/03/22 07:43:33;;;;;;;3.05;1.60;;;;;;;;;;7395798;19;20020;-78
2022/03/22 07:45:59;;;;;;;2.90;1.60;;;;;;;;;;7393155;19;20013;-77
2022/03/22 07:48:24;;;;;;;3.47;1.85;;;;;;;;;;7390154;19;20081;-78
2022/03/22 07:53:34;;;;;;;4.10;1.80;;;;;;;;;;7391269;19;20520;-76
2022/03/22 07:55:59;;;;;;;5.18;2.17;;;;;;;;;;7391061;19;20010;-78
2022/03/22 07:58:24;;;;;;;4.63;2.42;;;;;;;;;;7350266;19;20021;-77
2022/03/22 08:00:50;;;;;;;6.40;2.45;;;;;;;;;;7389079;19;20497;-78
2022/03/22 08:03:18;;;;;;;4.82;2.15;;;;;;;;;;7392513;19;20014;-79
2022/03/22 08:05:46;;;;;;;4.53;2.50;;;;;;;;;;7394891;19;19999;-79
2022/03/22 08:08:12;;;;;;;3.50;2.05;;;;;;;;;;7389883;19;20006;-77
2022/03/22 08:10:38;;;;;;;5.00;2.55;;;;;;;;;;7394645;19;20016;-79
2022/03/22 08:13:03;;;;;;;4.20;2.33;;;;;;;;;;7392721;19;20090;-79
2022/03/22 08:15:28;;;;;;;3.88;2.25;;;;;;;;;;7393184;19;20440;-77
2022/03/22 08:17:54;;;;;;;3.80;2.47;;;;;;;;;;7393031;19;20545;-79
2022/03/22 08:20:19;;;;;;;3.00;2.08;;;;;;;;;;7391374;19;19995;-79
2022/03/22 08:22:53;;;;;;;6.05;3.05;;;;;;;;;;7391280;19;20007;-78
2022/03/22 08:25:23;;;;;;;4.97;2.50;;;;;;;;;;7391888;19;19998;-78
2022/03/22 08:27:50;;;;;;;5.70;2.80;;;;;;;;;;7394512;19;20098;-78
2022/03/22 08:30:18;;;;;;;5.55;3.00;;;;;;;;;;7390141;19;20037;-79
2022/03/22 08:32:43;;;;;;;4.45;2.58;;;;;;;;;;7390520;19;20461;-77
2022/03/22 08:35:09;;;;;;;3.90;2.72;;;;;;;;;;7391771;19;20010;-79
2022/03/22 08:37:35;;;;;;;5.07;2.72;;;;;;;;;;7392060;19;20426;-78
2022/03/22 08:40:01;;;;;;;8.23;3.30;;;;;;;;;;7390592;19;20330;-79
2022/03/22 08:42:26;;;;;;;7.30;3.30;;;;;;;;;;7393502;19;20021;-79
2022/03/22 08:44:51;;;;;;;7.30;3.05;;;;;;;;;;7391185;19;20014;-77
2022/03/22 08:47:17;;;;;;;6.90;2.47;;;;;;;;;;7387939;19;19998;-78
2022/03/22 08:49:42;;;;;;;5.93;2.90;;;;;;;;;;7391345;19;19999;-80
2022/03/22 08:52:07;;;;;;;6.00;2.92;;;;;;;;;;7392526;19;20010;-80
2022/03/22 08:54:33;;;;;;;6.85;3.17;;;;;;;;;;7391976;19;20018;-80
2022/03/22 08:56:58;;;;;;;3.80;2.58;;;;;;;;;;7392045;19;20002;-78
2022/03/22 08:59:23;;;;;;;4.30;2.70;;;;;;;;;;7384153;19;20508;-76
2022/03/22 09:01:49;;;;;;;6.43;2.72;;;;;;;;;;7385148;19;20003;-76
2022/03/22 09:06:58;;;;;;;10.93;3.13;;;;;;;;;;7389476;19;20464;-75
2022/03/22 09:09:24;;;;;;;6.03;3.00;;;;;;;;;;7387438;19;20002;-76
2022/03/22 09:11:50;;;;;;;3.95;2.47;;;;;;;;;;7395859;19;20022;-76
2022/03/22 09:14:15;;;;;;;8.73;3.50;;;;;;;;;;7393803;19;20031;-75
2022/03/22 09:16:40;;;;;;;8.65;3.13;;;;;;;;;;7392334;19;20028;-75
2022/03/22 09:19:06;;;;;;;6.00;2.92;;;;;;;;;;7392566;19;20069;-77
2022/03/22 09:21:31;;;;;;;4.45;2.88;;;;;;;;;;7392953;19;20009;-76
2022/03/22 09:23:57;;;;;;;5.50;3.10;;;;;;;;;;7391404;19;20647;-77
2022/03/22 09:26:22;;;;;;;8.35;3.28;;;;;;;;;;7393462;19;20010;-75
2022/03/22 09:28:52;;;;;;;8.45;3.75;;;;;;;;;;7392043;19;20017;-76
2022/03/22 09:31:17;;;;;;;5.10;2.90;;;;;;;;;;7394575;19;20003;-75
2022/03/22 09:33:43;;;;;;;5.18;3.22;;;;;;;;;;7390993;19;20005;-76
2022/03/22 09:36:08;;;;;;;9.50;3.60;;;;;;;;;;7391232;19;20011;-76
2022/03/22 09:38:33;;;;;;;5.25;3.28;;;;;;;;;;7392095;19;20010;-76
2022/03/22 09:41:00;;;;;;;6.25;3.05;;;;;;;;;;7390149;19;20015;-76
2022/03/22 09:43:27;;;;;;;6.35;3.45;;;;;;;;;;7386666;19;20114;-77
2022/03/22 09:45:52;;;;;;;5.15;3.35;;;;;;;;;;7392285;19;20011;-76
2022/03/22 09:48:18;;;;;;;8.38;3.70;;;;;;;;;;7388330;19;20005;-77
2022/03/22 09:53:28;;;;;;;7.65;3.70;;;;;;;;;;7389781;19;20013;-77
2022/03/22 09:55:54;;;;;;;7.28;3.63;;;;;;;;;;7394695;19;20069;-77
2022/03/22 09:58:19;;;;;;;5.72;3.22;;;;;;;;;;7392359;19;20450;-77
2022/03/22 10:00:45;;;;;;;5.68;3.90;;;;;;;;;;7393087;19;20002;-77
2022/03/22 10:03:20;;;;;;;4.88;3.17;;;;;;;;;;7393194;19;20013;-76
2022/03/22 10:05:59;;;;;;;6.15;3.47;;;;;;;;;;7424975;19;20010;-76
2022/03/22 10:08:25;;;;;;;7.20;3.47;;;;;;;;;;7422574;19;20010;-76
2022/03/22 10:10:58;;;;;;;7.78;3.50;;;;;;;;;;7426053;19;20010;-76
2022/03/22 10:13:24;;;;;;;6.13;3.50;;;;;;;;;;7421222;19;20038;-76
2022/03/22 10:15:50;;;;;;;5.50;3.08;;;;;;;;;;7398883;19;20010;-77
2022/03/22 10:18:23;;;;;;;5.70;3.30;;;;;;;;;;7393222;19;20066;-77
2022/03/22 10:20:48;;;;;;;5.45;3.28;;;;;;;;;;7390790;19;19999;-77
2022/03/22 10:23:13;;;;;;;4.93;3.38;;;;;;;;;;7391546;19;20014;-77
2022/03/22 10:25:41;;;;;;;7.40;3.65;;;;;;;;;;7395846;19;20006;-77
2022/03/22 10:28:08;;;;;;;5.50;3.00;;;;;;;;;;7391304;19;20027;-77
2022/03/22 10:30:34;;;;;;;4.60;3.33;;;;;;;;;;7392229;19;20007;-76
2022/03/22 10:33:00;;;;;;;6.88;3.45;;;;;;;;;;7389298;19;20021;-77
2022/03/22 10:35:34;;;;;;;7.45;3.60;;;;;;;;;;7396074;19;20006;-76
2022/03/22 10:38:01;;;;;;;6.75;3.40;;;;;;;;;;7394557;19;20438;-77
2022/03/22 10:40:41;;;;;;;7.18;3.25;;;;;;;;;;7394694;19;20006;-78
2022/03/22 10:43:09;;;;;;;4.35;3.15;;;;;;;;;;7394701;19;20025;-78
2022/03/22 10:45:48;;;;;;;10.70;3.20;;;;;;;;;;7396695;19;20011;-77
2022/03/22 10:48:19;;;;;;;5.57;3.13;;;;;;;;;;7388924;19;20010;-78
2022/03/22 10:50:47;;;;;;;4.65;3.00;;;;;;;;;;7394491;19;20123;-77
2022/03/22 10:53:15;;;;;;;4.80;3.05;;;;;;;;;;7393724;19;20355;-78
2022/03/22 10:55:41;;;;;;;6.72;3.65;;;;;;;;;;7394924;19;20073;-77
2022/03/22 10:58:07;;;;;;;7.68;3.20;;;;;;;;;;7391841;19;20011;-78
2022/03/22 11:00:33;;;;;;;6.28;3.60;;;;;;;;;;7393443;19;20059;-78
2022/03/22 11:02:59;;;;;;;5.78;3.17;;;;;;;;;;7393238;19;20032;-78
2022/03/22 11:05:26;;;;;;;5.47;3.65;;;;;;;;;;7393322;19;20002;-77
2022/03/22 11:07:52;;;;;;;6.43;3.80;;;;;;;;;;7392698;19;20010;-78
2022/03/22 11:10:29;;;;;;;13.65;4.10;;;;;;;;;;7388810;19;20458;-78
2022/03/22 11:12:57;;;;;;;4.80;3.05;;;;;;;;;;7392758;19;20449;-78
2022/03/22 11:15:24;;;;;;;6.15;3.65;;;;;;;;;;7395083;19;20002;-77
2022/03/22 11:17:51;;;;;;;5.70;3.20;;;;;;;;;;7393238;19;20038;-78
2022/03/22 11:20:17;;;;;;;4.88;3.20;;;;;;;;;;7390645;19;20002;-78
2022/03/22 11:22:47;;;;;;;6.30;3.50;;;;;;;;;;7390611;19;20011;-78
2022/03/22 11:25:16;;;;;;;6.63;3.80;;;;;;;;;;7389226;19;20024;-77
2022/03/22 11:27:41;;;;;;;6.75;3.58;;;;;;;;;;7389665;19;20037;-77
2022/03/22 11:30:07;;;;;;;6.30;3.17;;;;;;;;;;7385316;19;20789;-77
2022/03/22 11:35:25;;;;;;;6.13;2.90;;;;;;;;;;7387240;19;20027;-78
2022/03/22 11:38:00;;;;;;;5.13;3.53;;;;;;;;;;7388815;19;20002;-78
2022/03/22 11:43:11;;;;;;;8.55;3.10;;;;;;;;;;7390786;19;20091;-76
2022/03/22 11:45:47;;;;;;;7.00;3.15;;;;;;;;;;7389247;19;20739;-76
2022/03/22 11:48:12;;;;;;;4.93;2.95;;;;;;;;;;7388282;19;20360;-76
2022/03/22 11:50:41;;;;;;;4.63;3.00;;;;;;;;;;7391224;19;20006;-76
2022/03/22 11:53:16;;;;;;;5.63;2.88;;;;;;;;;;7389846;19;20017;-76
2022/03/22 11:55:41;;;;;;;3.90;2.90;;;;;;;;;;7389611;19;20011;-77
2022/03/22 11:58:11;;;;;;;9.52;3.15;;;;;;;;;;7388961;19;20279;-77
2022/03/22 12:00:47;;;;;;;6.95;3.13;;;;;;;;;;7389303;19;20619;-76
2022/03/22 12:03:16;;;;;;;7.22;2.90;;;;;;;;;;7387278;19;20006;-77
2022/03/22 12:05:42;;;;;;;4.80;3.05;;;;;;;;;;7388189;19;20319;-77
2022/03/22 12:08:10;;;;;;;5.05;3.47;;;;;;;;;;7385313;19;20107;-77
2022/03/22 12:10:35;;;;;;;5.70;3.10;;;;;;;;;;7385871;19;20107;-77
2022/03/22 12:13:02;;;;;;;4.57;3.00;;;;;;;;;;7388195;19;20362;-77
2022/03/22 12:15:28;;;;;;;3.85;2.78;;;;;;;;;;7387035;19;20013;-78
2022/03/22 12:17:53;;;;;;;6.03;3.17;;;;;;;;;;7385316;19;20408;-77
2022/03/22 12:20:21;;;;;;;6.75;3.30;;;;;;;;;;7386476;19;20003;-77
2022/03/22 12:22:57;;;;;;;4.97;3.05;;;;;;;;;;7383755;19;20466;-78
2022/03/22 12:25:25;;;;;;;5.35;3.05;;;;;;;;;;7386638;19;20002;-77
2022/03/22 12:27:51;;;;;;;5.15;3.17;;;;;;;;;;7387548;19;20010;-76
2022/03/22 12:30:17;;;;;;;11.13;2.92;;;;;;;;;;7385682;19;20037;-77
2022/03/22 12:32:43;;;;;;;3.70;3.03;;;;;;;;;;7386559;19;20003;-77
2022/03/22 12:35:11;;;;;;;4.60;3.08;;;;;;;;;;7387817;19;20350;-78
2022/03/22 12:37:37;;;;;;;9.23;2.85;;;;;;;;;;7387435;19;20010;-77
2022/03/22 12:40:02;;;;;;;4.60;3.05;;;;;;;;;;7383854;19;20007;-78
2022/03/22 12:42:31;;;;;;;8.88;3.05;;;;;;;;;;7386519;19;20118;-78
2022/03/22 12:44:57;;;;;;;5.55;2.72;;;;;;;;;;7388751;19;20002;-78
2022/03/22 12:47:22;;;;;;;4.47;2.63;;;;;;;;;;7392604;19;20037;-79
2022/03/22 12:49:48;;;;;;;3.33;2.42;;;;;;;;;;7389492;19;20010;-77
2022/03/22 12:52:20;;;;;;;4.80;2.78;;;;;;;;;;7405550;19;20003;-80
2022/03/22 12:54:46;;;;;;;4.22;2.38;;;;;;;;;;7400924;19;20036;-79
2022/03/22 12:57:16;;;;;;;4.68;2.80;;;;;;;;;;7399939;19;20003;-79
2022/03/22 12:59:42;;;;;;;4.82;2.42;;;;;;;;;;7397482;19;20010;-79
2022/03/22 13:02:08;;;;;;;4.78;2.58;;;;;;;;;;7398253;19;20014;-78
2022/03/22 13:04:49;;;;;;;4.22;3.13;;;;;;;;;;7398546;19;20014;-78
2022/03/22 13:07:26;;;;;;;4.18;3.05;;;;;;;;;;7401001;19;20442;-78
2022/03/22 13:12:38;;;;;;;4.38;3.20;;;;;;;;;;7397024;19;20745;-77
2022/03/22 13:15:15;;;;;;;5.35;3.58;;;;;;;;;;7392497;19;20014;-79
2022/03/22 13:17:45;;;;;;;4.90;2.90;;;;;;;;;;7399307;19;20105;-78
2022/03/22 13:20:24;;;;;;;5.18;3.33;;;;;;;;;;7390529;19;20657;-79
2022/03/22 13:22:55;;;;;;;4.32;2.92;;;;;;;;;;7396245;19;20430;-76
2022/03/22 13:25:27;;;;;;;4.80;2.63;;;;;;;;;;7391987;19;20364;-79
2022/03/22 13:27:56;;;;;;;4.72;2.80;;;;;;;;;;7392821;19;20018;-79
2022/03/22 13:30:22;;;;;;;5.10;2.35;;;;;;;;;;7394583;19;20020;-78
2022/03/22 13:32:47;;;;;;;36.58;3.38;;;;;;;;;;7395546;19;19991;-77
2022/03/22 13:35:14;;;;;;;9.00;2.70;;;;;;;;;;7393042;19;20041;-77
2022/03/22 13:37:51;;;;;;;4.88;2.83;;;;;;;;;;7395596;19;20075;-77
2022/03/22 13:40:19;;;;;;;3.72;2.97;;;;;;;;;;7389066;19;20089;-77
2022/03/22 13:43:00;;;;;;;3.65;2.63;;;;;;;;;;7392655;19;20017;-77
2022/03/22 13:45:25;;;;;;;4.97;2.88;;;;;;;;;;7392398;19;20015;-77
2022/03/22 13:47:52;;;;;;;13.68;3.50;;;;;;;;;;7392807;19;20001;-77
2022/03/22 13:50:20;;;;;;;3.60;2.75;;;;;;;;;;7384303;19;20018;-77
2022/03/22 13:52:57;;;;;;;4.10;2.83;;;;;;;;;;7393183;19;20006;-77
2022/03/22 13:55:23;;;;;;;3.15;2.35;;;;;;;;;;7392344;19;20318;-76
2022/03/22 13:57:55;;;;;;;2.65;2.15;;;;;;;;;;7392802;19;20006;-76
2022/03/22 14:00:20;;;;;;;3.35;2.42;;;;;;;;;;7389608;19;20083;-76
2022/03/22 14:02:47;;;;;;;3.80;2.60;;;;;;;;;;7393691;19;20022;-77
2022/03/22 14:05:13;;;;;;;4.40;2.85;;;;;;;;;;7391129;19;20814;-76
2022/03/22 14:07:49;;;;;;;6.13;3.10;;;;;;;;;;7391671;19;20003;-76
2022/03/22 14:10:14;;;;;;;5.70;2.83;;;;;;;;;;7387451;19;20010;-77
2022/03/22 14:12:39;;;;;;;2.47;2.03;;;;;;;;;;7392317;19;20023;-76
2022/03/22 14:15:06;;;;;;;6.97;2.63;;;;;;;;;;7390065;19;20306;-77
2022/03/22 14:17:31;;;;;;;4.63;2.75;;;;;;;;;;7393057;19;20022;-76
2022/03/22 14:19:57;;;;;;;3.33;2.40;;;;;;;;;;7392484;19;20021;-77
2022/03/22 14:22:22;;;;;;;2.97;2.38;;;;;;;;;;7393755;19;20024;-77
2022/03/22 14:24:50;;;;;;;3.25;2.33;;;;;;;;;;7391301;19;20030;-77
2022/03/22 14:27:16;;;;;;;3.10;2.30;;;;;;;;;;7392059;19;20014;-78
2022/03/22 14:29:41;;;;;;;3.63;2.50;;;;;;;;;;7389099;19;20010;-77
2022/03/22 14:32:06;;;;;;;4.53;2.50;;;;;;;;;;7390111;19;20384;-77
2022/03/22 14:37:16;;;;;;;3.85;2.70;;;;;;;;;;7390322;19;20034;-76
2022/03/22 14:39:41;;;;;;;3.45;2.72;;;;;;;;;;7387482;19;20006;-77
2022/03/22 14:42:08;;;;;;;7.82;2.80;;;;;;;;;;7390010;19;20006;-77
2022/03/22 14:44:33;;;;;;;6.20;3.30;;;;;;;;;;7391652;19;20003;-77
2022/03/22 14:47:00;;;;;;;3.65;2.75;;;;;;;;;;7390302;19;20006;-77
2022/03/22 14:49:25;;;;;;;4.07;2.90;;;;;;;;;;7390037;19;20010;-77
2022/03/22 14:54:35;;;;;;;4.10;3.22;;;;;;;;;;7393099;19;20086;-77
2022/03/22 14:59:45;;;;;;;3.97;3.03;;;;;;;;;;7388143;19;20009;-77
2022/03/22 15:02:13;;;;;;;3.75;3.00;;;;;;;;;;7389700;19;20034;-76
2022/03/22 15:04:42;;;;;;;4.97;2.80;;;;;;;;;;7387890;19;20021;-77
2022/03/22 15:07:08;;;;;;;5.55;3.00;;;;;;;;;;7388726;19;20042;-76
2022/03/22 15:09:33;;;;;;;5.05;2.83;;;;;;;;;;7390509;19;20030;-76
2022/03/22 15:11:58;;;;;;;3.75;2.90;;;;;;;;;;7388883;19;20022;-76
2022/03/22 15:14:24;;;;;;;5.15;2.83;;;;;;;;;;7390657;19;20003;-76
2022/03/22 15:16:49;;;;;;;7.45;3.30;;;;;;;;;;7391188;19;20010;-76
2022/03/22 15:19:16;;;;;;;4.63;2.90;;;;;;;;;;7389081;19;20119;-76
2022/03/22 15:21:41;;;;;;;7.47;3.10;;;;;;;;;;7392152;19;20540;-76
2022/03/22 15:24:07;;;;;;;5.00;3.08;;;;;;;;;;7391845;19;20049;-76
2022/03/22 15:26:33;;;;;;;4.45;3.17;;;;;;;;;;7388569;19;20003;-76